ΕΜΥ, Εθνική Μετεωρολογική Υπηρεσία - Δελτία Καιρού, Προγνώσεις

ΑΕΡΟΝΑΥΤΙΛΙΑ

GREEK AIRPORTS CODES

TAF LGZA 182000Z 1821/1906 VRB03KT 9999 FEW015 SCT020 PROB30 1822/1906 5000 BR SCT010 BECMG 1901/1903 13006KT=

EUROPEAN AIRPORTS CODES

UUWW 182130Z 15004MPS 9999 OVC010 02/M01 Q1018 R24/190050NOSIG=